Time;durP1;ratioP1;P1;durP2;ratioP2;P2;SDS_P1;SDS_P2;PMS_P1;PMS_P2;Temp;Humidity;BMP_temperature;BMP_pressure;BME280_temperature;BME280_humidity;BME280_pressure;Samples;Min_cycle;Max_cycle;Signal;HPM_P1;HPM_P2
2021/05/22 00:00:48;;;;;;;3.93;1.40;;;9.20;99.90;;;;;;5082235;28;20283;-46
2021/05/22 00:03:15;;;;;;;5.10;1.47;;;9.20;99.90;;;;;;5082323;28;20222;-46
2021/05/22 00:05:41;;;;;;;3.73;1.40;;;9.20;99.90;;;;;;5081145;28;20255;-51
2021/05/22 00:08:08;;;;;;;3.30;1.70;;;9.10;99.90;;;;;;5070928;28;20354;-49
2021/05/22 00:10:35;;;;;;;5.00;1.40;;;9.10;99.90;;;;;;5074430;28;20201;-50
2021/05/22 00:13:01;;;;;;;6.57;1.77;;;9.10;99.90;;;;;;5084074;28;20182;-46
2021/05/22 00:15:27;;;;;;;5.87;1.57;;;9.20;99.90;;;;;;5080665;28;20266;-47
2021/05/22 00:17:53;;;;;;;9.60;1.50;;;9.20;99.90;;;;;;5083539;28;20202;-50
2021/05/22 00:20:20;;;;;;;4.43;1.87;;;9.20;99.90;;;;;;5081273;28;20204;-47
2021/05/22 00:22:46;;;;;;;3.93;1.27;;;9.20;99.90;;;;;;5068708;28;20220;-51
2021/05/22 00:25:14;;;;;;;7.43;1.67;;;9.20;99.90;;;;;;5083663;28;20221;-48
2021/05/22 00:27:42;;;;;;;6.90;1.90;;;9.20;99.90;;;;;;5074634;28;20202;-49
2021/05/22 00:30:10;;;;;;;7.80;1.40;;;9.20;99.90;;;;;;5083523;28;20197;-54
2021/05/22 00:32:37;;;;;;;2.83;1.67;;;9.30;99.90;;;;;;5080120;28;20910;-52
2021/05/22 00:35:03;;;;;;;3.60;1.70;;;9.30;99.90;;;;;;5083834;28;20210;-48
2021/05/22 00:37:30;;;;;;;2.47;1.20;;;9.30;99.90;;;;;;5068426;28;20285;-47
2021/05/22 00:39:56;;;;;;;3.57;1.77;;;9.30;99.90;;;;;;5081765;28;20223;-50
2021/05/22 00:42:23;;;;;;;3.20;2.17;;;9.20;99.90;;;;;;5076388;28;20258;-45
2021/05/22 00:45:05;;;;;;;4.57;2.67;;;9.20;99.90;;;;;;5081588;28;20281;-47
2021/05/22 00:47:31;;;;;;;5.90;2.73;;;9.20;99.90;;;;;;5079877;28;20193;-49
2021/05/22 00:49:58;;;;;;;4.47;2.10;;;9.20;99.90;;;;;;5082495;28;20947;-49
2021/05/22 00:52:25;;;;;;;3.20;2.30;;;9.20;99.90;;;;;;5072844;28;20337;-44
2021/05/22 00:54:51;;;;;;;3.60;1.70;;;9.20;99.90;;;;;;5078342;28;20194;-49
2021/05/22 00:57:17;;;;;;;4.80;1.80;;;9.20;99.90;;;;;;5077449;28;20194;-50
2021/05/22 00:59:44;;;;;;;3.40;1.67;;;9.20;99.90;;;;;;5080127;28;20186;-51
2021/05/22 01:02:11;;;;;;;4.13;1.70;;;9.20;99.90;;;;;;5083460;28;20193;-46
2021/05/22 01:04:38;;;;;;;3.50;1.80;;;9.20;99.90;;;;;;5079117;28;20189;-50
2021/05/22 01:07:04;;;;;;;3.37;1.70;;;9.20;99.90;;;;;;5083598;28;20201;-51
2021/05/22 01:09:32;;;;;;;4.97;1.80;;;9.10;99.90;;;;;;5060023;28;20260;-49
2021/05/22 01:12:03;;;;;;;2.93;1.70;;;9.10;99.90;;;;;;5077742;28;20285;-52
2021/05/22 01:14:36;;;;;;;5.17;1.93;;;9.10;99.90;;;;;;5077635;28;20194;-45
2021/05/22 01:17:03;;;;;;;5.07;1.50;;;9.20;99.90;;;;;;5082807;28;20221;-51
2021/05/22 01:19:37;;;;;;;4.37;1.43;;;9.20;99.90;;;;;;5079068;28;20194;-47
2021/05/22 01:22:04;;;;;;;4.47;1.40;;;9.20;99.90;;;;;;5083479;28;20201;-52
2021/05/22 01:24:33;;;;;;;3.67;1.27;;;9.20;99.90;;;;;;5066002;28;20240;-46
2021/05/22 01:27:00;;;;;;;4.63;1.50;;;9.20;99.90;;;;;;5082870;28;20220;-45
2021/05/22 01:29:26;;;;;;;5.50;1.50;;;9.30;99.90;;;;;;5074476;28;20209;-44
2021/05/22 01:31:53;;;;;;;6.97;1.53;;;9.40;99.90;;;;;;5082532;28;20263;-49
2021/05/22 01:34:19;;;;;;;2.13;1.10;;;9.40;99.90;;;;;;5081418;28;20212;-50
2021/05/22 01:36:49;;;;;;;4.93;1.77;;;9.40;99.90;;;;;;5080688;28;20210;-46
2021/05/22 01:39:15;;;;;;;2.53;1.00;;;9.50;99.90;;;;;;5079296;28;20201;-47
2021/05/22 01:41:41;;;;;;;2.00;1.20;;;9.60;99.90;;;;;;5069920;28;20202;-48
2021/05/22 01:44:10;;;;;;;3.80;1.00;;;9.60;99.90;;;;;;5081056;28;20214;-50
2021/05/22 01:46:38;;;;;;;4.73;0.90;;;9.70;99.90;;;;;;5079193;28;20210;-47
2021/05/22 01:49:05;;;;;;;6.00;1.17;;;9.70;99.90;;;;;;5082150;28;20191;-50
2021/05/22 01:51:31;;;;;;;4.33;1.07;;;9.70;99.90;;;;;;5078945;28;20239;-47
2021/05/22 01:54:07;;;;;;;3.17;0.93;;;9.80;99.90;;;;;;5081962;28;20213;-51
2021/05/22 01:56:34;;;;;;;3.33;1.30;;;9.80;99.90;;;;;;5066262;28;20300;-49
2021/05/22 01:59:00;;;;;;;3.70;1.27;;;9.80;99.90;;;;;;5084723;28;20549;-48
2021/05/22 02:01:27;;;;;;;3.60;1.20;;;9.90;99.90;;;;;;5104325;28;20197;-46
2021/05/22 02:03:56;;;;;;;3.70;1.10;;;9.80;99.90;;;;;;5106366;28;20217;-51
2021/05/22 02:06:25;;;;;;;5.47;1.40;;;9.80;99.90;;;;;;5104890;28;20590;-50
2021/05/22 02:08:54;;;;;;;3.47;1.00;;;9.70;99.90;;;;;;5104943;28;20191;-49
2021/05/22 02:11:21;;;;;;;5.33;1.03;;;9.70;99.90;;;;;;5097843;28;20193;-45
2021/05/22 02:13:47;;;;;;;3.67;1.07;;;9.70;99.90;;;;;;5078655;28;20216;-48
2021/05/22 02:16:17;;;;;;;5.53;0.93;;;9.70;99.90;;;;;;5076590;28;20225;-48
2021/05/22 02:18:45;;;;;;;7.90;1.57;;;9.60;99.90;;;;;;5083091;28;20182;-51
2021/05/22 02:21:12;;;;;;;3.80;1.17;;;9.60;99.90;;;;;;5086348;28;20198;-50
2021/05/22 02:23:44;;;;;;;4.03;1.40;;;9.60;99.90;;;;;;5080652;28;20839;-49
2021/05/22 02:26:11;;;;;;;2.83;0.90;;;9.60;99.90;;;;;;5086114;28;20225;-52
2021/05/22 02:28:41;;;;;;;3.00;0.97;;;9.50;99.90;;;;;;5068550;28;20205;-45
2021/05/22 02:31:08;;;;;;;4.00;1.40;;;9.50;99.90;;;;;;5081028;28;20686;-48
2021/05/22 02:33:36;;;;;;;4.53;1.20;;;9.50;99.90;;;;;;5082219;28;20190;-53
2021/05/22 02:36:04;;;;;;;1.70;0.73;;;9.60;99.90;;;;;;5085856;28;20220;-52
2021/05/22 02:38:35;;;;;;;5.90;1.47;;;9.60;99.90;;;;;;5081931;28;20198;-50
2021/05/22 02:41:03;;;;;;;4.33;1.07;;;9.60;99.90;;;;;;5085718;28;20192;-53
2021/05/22 02:43:30;;;;;;;4.80;1.20;;;9.70;99.90;;;;;;5071010;28;20224;-47
2021/05/22 02:45:58;;;;;;;2.40;1.00;;;9.70;99.90;;;;;;5080154;28;20296;-50
2021/05/22 02:48:26;;;;;;;2.47;1.10;;;9.70;99.90;;;;;;5083397;28;20202;-47
2021/05/22 02:50:52;;;;;;;5.30;1.00;;;9.70;99.90;;;;;;5083807;28;20198;-51
2021/05/22 02:53:22;;;;;;;2.50;1.07;;;9.70;99.90;;;;;;5083146;28;20190;-48
2021/05/22 02:55:49;;;;;;;4.07;1.07;;;9.70;99.90;;;;;;5083799;28;20459;-48
2021/05/22 02:58:17;;;;;;;2.50;1.00;;;9.80;99.90;;;;;;5084821;28;20191;-46
2021/05/22 03:00:44;;;;;;;3.43;1.10;;;9.80;99.90;;;;;;5068784;28;20985;-51
2021/05/22 03:03:10;;;;;;;5.70;1.07;;;9.80;99.90;;;;;;5080395;28;20259;-52
2021/05/22 03:05:37;;;;;;;3.23;0.87;;;9.80;99.90;;;;;;5081229;28;20217;-49
2021/05/22 03:08:04;;;;;;;4.00;1.00;;;9.70;99.90;;;;;;5084453;28;20194;-53
2021/05/22 03:10:31;;;;;;;3.83;1.30;;;9.70;99.90;;;;;;5081175;28;20194;-48
2021/05/22 03:12:57;;;;;;;3.87;1.30;;;9.70;99.90;;;;;;5080052;28;20206;-53
2021/05/22 03:15:24;;;;;;;6.17;1.37;;;9.70;99.90;;;;;;5073836;28;20267;-47
2021/05/22 03:17:50;;;;;;;5.03;1.10;;;9.60;99.90;;;;;;5072881;28;20210;-47
2021/05/22 03:20:16;;;;;;;3.57;1.20;;;9.60;99.90;;;;;;5082957;28;20190;-47
2021/05/22 03:22:42;;;;;;;3.50;1.10;;;9.60;99.90;;;;;;5081363;28;20221;-50
2021/05/22 03:25:10;;;;;;;3.10;1.20;;;9.60;99.90;;;;;;5085081;28;20218;-48
2021/05/22 03:27:38;;;;;;;3.73;1.30;;;9.50;99.90;;;;;;5078536;28;20186;-48
2021/05/22 03:30:06;;;;;;;1.93;1.03;;;9.50;99.90;;;;;;5084512;28;20625;-46
2021/05/22 03:32:32;;;;;;;4.90;1.20;;;9.40;99.90;;;;;;5067552;28;20206;-51
2021/05/22 03:34:58;;;;;;;3.70;0.90;;;9.40;99.90;;;;;;5079308;28;20206;-52
2021/05/22 03:37:24;;;;;;;3.20;1.00;;;9.40;99.90;;;;;;5082267;28;20220;-49
2021/05/22 03:39:50;;;;;;;3.30;1.37;;;9.40;99.90;;;;;;5082789;28;20243;-51
2021/05/22 03:42:16;;;;;;;4.43;2.20;;;9.40;99.90;;;;;;5083796;28;20221;-46
2021/05/22 03:44:44;;;;;;;4.33;1.50;;;9.30;99.90;;;;;;5081414;28;20214;-48
2021/05/22 03:47:10;;;;;;;4.63;1.70;;;9.30;99.90;;;;;;5071495;28;20210;-51
2021/05/22 03:49:37;;;;;;;5.63;1.60;;;9.20;99.90;;;;;;5074489;28;20186;-47
2021/05/22 03:52:04;;;;;;;8.03;1.53;;;9.20;99.90;;;;;;5084775;28;20194;-47
2021/05/22 03:54:31;;;;;;;4.63;1.53;;;9.20;99.90;;;;;;5079497;28;20194;-51
2021/05/22 03:56:57;;;;;;;5.13;1.40;;;9.10;99.90;;;;;;5084401;28;20213;-50
2021/05/22 03:59:23;;;;;;;2.57;0.90;;;9.10;99.90;;;;;;5081353;28;20197;-49
2021/05/22 04:01:50;;;;;;;5.37;1.40;;;9.20;99.90;;;;;;5075415;28;20442;-50
2021/05/22 04:04:16;;;;;;;3.77;1.27;;;9.20;99.90;;;;;;5069575;28;20213;-45
2021/05/22 04:06:42;;;;;;;4.30;1.30;;;9.20;99.90;;;;;;5071686;28;20240;-48
2021/05/22 04:09:08;;;;;;;2.80;0.90;;;9.30;99.90;;;;;;5082604;28;20202;-47
2021/05/22 04:11:35;;;;;;;2.40;0.90;;;9.30;99.90;;;;;;5080427;28;20190;-48
2021/05/22 04:14:01;;;;;;;3.33;1.30;;;9.40;99.90;;;;;;5084269;28;20211;-48
2021/05/22 04:16:27;;;;;;;2.43;0.97;;;9.50;99.90;;;;;;5080618;28;20216;-46
2021/05/22 04:18:55;;;;;;;1.90;1.30;;;9.60;99.90;;;;;;5067075;28;20217;-53
2021/05/22 04:21:21;;;;;;;1.63;1.50;;;9.70;99.90;;;;;;5074182;28;20268;-48
2021/05/22 04:23:47;;;;;;;5.83;0.90;;;9.80;99.90;;;;;;5079339;28;20297;-54
2021/05/22 04:26:13;;;;;;;2.07;1.20;;;9.80;99.90;;;;;;5074817;28;20206;-50
2021/05/22 04:28:39;;;;;;;4.80;0.90;;;9.80;99.90;;;;;;5079034;28;20186;-51
2021/05/22 04:31:05;;;;;;;0.90;0.60;;;9.90;99.90;;;;;;5083690;28;20202;-49
2021/05/22 04:33:32;;;;;;;4.80;1.07;;;9.90;99.90;;;;;;5066721;28;22676;-54
2021/05/22 04:35:58;;;;;;;3.87;1.00;;;10.00;99.90;;;;;;5078497;28;20718;-51
2021/05/22 04:38:25;;;;;;;1.20;0.90;;;10.00;99.90;;;;;;5075429;28;20209;-49
2021/05/22 04:40:51;;;;;;;3.03;0.70;;;10.00;99.90;;;;;;5082539;28;20178;-46
2021/05/22 04:43:17;;;;;;;2.60;0.97;;;10.00;99.90;;;;;;5079943;28;20206;-48
2021/05/22 04:45:43;;;;;;;2.87;1.10;;;10.10;99.90;;;;;;5077637;28;20217;-52
2021/05/22 04:48:10;;;;;;;2.10;0.60;;;10.10;99.90;;;;;;5078456;28;20289;-50
2021/05/22 04:50:37;;;;;;;3.50;1.10;;;10.10;99.90;;;;;;5062275;28;20924;-52
2021/05/22 04:53:04;;;;;;;6.13;1.40;;;10.20;99.90;;;;;;5070941;28;20678;-51
2021/05/22 04:55:30;;;;;;;4.23;0.90;;;10.20;99.90;;;;;;5079284;28;20214;-50
2021/05/22 04:57:56;;;;;;;2.97;0.80;;;10.20;99.90;;;;;;5074053;28;20663;-50
2021/05/22 05:00:23;;;;;;;2.40;0.90;;;10.20;99.90;;;;;;5076103;28;20194;-48
2021/05/22 05:02:50;;;;;;;4.20;1.10;;;10.30;99.90;;;;;;5077244;28;20240;-51
2021/05/22 05:05:17;;;;;;;2.63;1.10;;;10.30;99.90;;;;;;5068207;28;20304;-47
2021/05/22 05:07:43;;;;;;;4.53;1.17;;;10.40;99.90;;;;;;5074185;28;20200;-54
2021/05/22 05:10:11;;;;;;;3.83;1.00;;;10.40;99.90;;;;;;5075517;28;20718;-49
2021/05/22 05:12:38;;;;;;;2.83;0.93;;;10.50;99.90;;;;;;5076242;28;20348;-49
2021/05/22 05:15:06;;;;;;;7.40;1.23;;;10.50;99.90;;;;;;5067154;28;20209;-52
2021/05/22 05:17:32;;;;;;;3.60;0.90;;;10.60;99.90;;;;;;5081215;28;20218;-49
2021/05/22 05:19:58;;;;;;;2.97;1.13;;;10.60;99.90;;;;;;5057716;28;20202;-50
2021/05/22 05:22:26;;;;;;;2.40;0.70;;;10.80;99.90;;;;;;5070773;28;20609;-48
2021/05/22 05:24:52;;;;;;;3.37;0.87;;;10.80;99.90;;;;;;5065264;28;20210;-48
2021/05/22 05:27:19;;;;;;;3.73;1.20;;;11.00;99.90;;;;;;5080427;28;20194;-49
2021/05/22 05:29:45;;;;;;;2.37;0.83;;;11.20;99.90;;;;;;5074270;28;20222;-48
2021/05/22 05:32:12;;;;;;;6.17;1.70;;;11.30;99.90;;;;;;5082046;28;20240;-48
2021/05/22 05:34:41;;;;;;;1.13;0.70;;;11.30;99.90;;;;;;5076824;28;20746;-45
2021/05/22 05:37:07;;;;;;;5.17;1.30;;;11.40;99.90;;;;;;5065455;28;20755;-50
2021/05/22 05:39:33;;;;;;;6.03;1.17;;;11.50;99.90;;;;;;5074355;28;20217;-48
2021/05/22 05:41:59;;;;;;;4.00;1.10;;;11.50;99.90;;;;;;5077611;28;20932;-52
2021/05/22 05:44:27;;;;;;;2.50;0.87;;;11.60;99.90;;;;;;5084565;28;20218;-47
2021/05/22 05:46:53;;;;;;;3.87;1.13;;;11.70;99.90;;;;;;5076804;28;20305;-49
2021/05/22 05:49:19;;;;;;;2.53;0.70;;;11.70;99.90;;;;;;5084364;28;20729;-47
2021/05/22 05:51:45;;;;;;;3.70;1.90;;;11.80;99.90;;;;;;5066947;28;20206;-47
2021/05/22 05:54:12;;;;;;;3.23;1.00;;;11.80;99.90;;;;;;5077154;28;20190;-50
2021/05/22 05:56:38;;;;;;;3.97;1.20;;;11.90;99.90;;;;;;5066638;28;20818;-47
2021/05/22 05:59:04;;;;;;;5.07;0.97;;;11.90;99.90;;;;;;5082498;28;20210;-46
2021/05/22 06:01:31;;;;;;;4.47;1.93;;;11.90;99.90;;;;;;5074740;28;20298;-47
2021/05/22 06:03:57;;;;;;;4.47;0.90;;;11.90;99.90;;;;;;5074404;28;20346;-46
2021/05/22 06:06:24;;;;;;;3.07;1.70;;;12.00;99.90;;;;;;5079984;28;20559;-46
2021/05/22 06:08:50;;;;;;;2.80;0.80;;;12.00;99.90;;;;;;5063205;28;20857;-46
2021/05/22 06:11:18;;;;;;;1.90;0.90;;;12.00;99.90;;;;;;5067924;28;20686;-47
2021/05/22 06:13:45;;;;;;;2.87;0.97;;;12.10;99.90;;;;;;5080988;28;20225;-45
2021/05/22 06:16:21;;;;;;;2.70;1.67;;;12.10;99.90;;;;;;5074935;28;20276;-47
2021/05/22 06:18:48;;;;;;;5.37;1.00;;;12.20;99.90;;;;;;5075839;28;20960;-46
2021/05/22 06:21:15;;;;;;;6.87;1.10;;;12.30;99.90;;;;;;5078654;28;20210;-46
2021/05/22 06:23:41;;;;;;;3.33;1.00;;;12.40;99.90;;;;;;5065994;28;20214;-46
2021/05/22 06:26:07;;;;;;;2.50;1.23;;;12.40;99.90;;;;;;5079387;28;20249;-47
2021/05/22 06:28:33;;;;;;;2.80;1.20;;;12.50;99.90;;;;;;5079079;28;20271;-49
2021/05/22 06:31:01;;;;;;;1.63;1.30;;;12.40;99.90;;;;;;5084076;28;20900;-46
2021/05/22 06:33:27;;;;;;;4.67;1.40;;;12.40;99.90;;;;;;5081352;28;20233;-48
2021/05/22 06:35:54;;;;;;;5.77;1.47;;;12.50;99.90;;;;;;5081060;28;20271;-46
2021/05/22 06:38:21;;;;;;;2.93;1.30;;;12.50;99.90;;;;;;5085041;28;20934;-46
2021/05/22 06:40:48;;;;;;;2.63;1.47;;;12.50;99.90;;;;;;5061367;28;20209;-48
2021/05/22 06:43:14;;;;;;;3.53;1.40;;;12.50;99.90;;;;;;5074627;28;20218;-46
2021/05/22 06:45:42;;;;;;;3.00;0.80;;;12.40;99.90;;;;;;5082869;28;20597;-51
2021/05/22 06:48:09;;;;;;;4.47;1.20;;;12.40;99.90;;;;;;5081650;28;20209;-47
2021/05/22 06:50:36;;;;;;;2.73;1.17;;;12.40;99.90;;;;;;5082606;28;20198;-47
2021/05/22 06:53:04;;;;;;;2.70;2.00;;;12.40;99.90;;;;;;5084585;28;20265;-45
2021/05/22 06:55:30;;;;;;;4.37;1.33;;;12.40;99.90;;;;;;5069321;28;20222;-45
2021/05/22 06:57:57;;;;;;;5.90;0.90;;;12.50;99.90;;;;;;5074005;28;20204;-49
2021/05/22 07:00:24;;;;;;;5.00;1.97;;;12.50;99.90;;;;;;5079933;28;20189;-49
2021/05/22 07:02:50;;;;;;;8.37;1.70;;;12.50;99.90;;;;;;5082131;28;20205;-46
2021/05/22 07:05:16;;;;;;;5.67;1.40;;;12.50;99.90;;;;;;5062722;28;20233;-50
2021/05/22 07:07:42;;;;;;;2.73;1.33;;;12.60;99.90;;;;;;5083718;28;20190;-49
2021/05/22 07:10:11;;;;;;;2.03;0.80;;;12.60;99.90;;;;;;5066499;28;20558;-49
2021/05/22 07:12:38;;;;;;;2.63;1.00;;;12.70;99.90;;;;;;5070126;28;20208;-46
2021/05/22 07:15:06;;;;;;;2.70;1.60;;;12.70;99.90;;;;;;5078234;28;20217;-49
2021/05/22 07:17:32;;;;;;;2.20;1.00;;;12.70;99.90;;;;;;5084408;28;20194;-46
2021/05/22 07:19:58;;;;;;;3.17;1.07;;;12.70;99.90;;;;;;5075206;28;20233;-52
2021/05/22 07:22:25;;;;;;;3.20;1.00;;;12.70;99.90;;;;;;5075437;28;20202;-47
2021/05/22 07:24:51;;;;;;;4.73;1.30;;;12.80;99.90;;;;;;5082295;28;20214;-48
2021/05/22 07:27:19;;;;;;;4.57;1.20;;;12.80;99.90;;;;;;5061858;28;20214;-45
2021/05/22 07:29:46;;;;;;;1.57;0.93;;;12.90;99.90;;;;;;5082098;28;20569;-46
2021/05/22 07:32:12;;;;;;;1.77;0.87;;;12.90;99.90;;;;;;5079861;28;20267;-48
2021/05/22 07:34:38;;;;;;;2.97;1.30;;;12.80;99.90;;;;;;5078616;28;20204;-49
2021/05/22 07:37:05;;;;;;;2.10;0.80;;;12.90;99.90;;;;;;5080980;28;20687;-48
2021/05/22 07:39:31;;;;;;;4.43;1.57;;;12.90;99.90;;;;;;5080458;28;20198;-49
2021/05/22 07:41:58;;;;;;;1.47;0.93;;;12.90;99.90;;;;;;5063484;28;20207;-49
2021/05/22 07:44:26;;;;;;;3.17;0.97;;;13.00;99.90;;;;;;5077144;28;21005;-45
2021/05/22 07:46:52;;;;;;;5.23;1.67;;;13.00;99.90;;;;;;5066757;28;20965;-45
2021/05/22 07:49:18;;;;;;;1.87;0.80;;;13.10;99.90;;;;;;5059293;28;20209;-46
2021/05/22 07:51:46;;;;;;;2.63;0.83;;;13.10;99.90;;;;;;5074675;28;20198;-48
2021/05/22 07:54:12;;;;;;;2.10;0.80;;;13.20;99.90;;;;;;5074510;28;20876;-47
2021/05/22 07:56:39;;;;;;;1.83;0.80;;;13.20;99.90;;;;;;5083501;28;20218;-46
2021/05/22 07:59:05;;;;;;;1.43;0.70;;;13.20;99.90;;;;;;5060476;28;20209;-46
2021/05/22 08:01:33;;;;;;;1.33;0.70;;;13.30;99.90;;;;;;5083473;28;20205;-45
2021/05/22 08:04:00;;;;;;;5.57;1.53;;;13.20;99.90;;;;;;5081216;28;20702;-45
2021/05/22 08:06:26;;;;;;;5.37;1.67;;;13.20;99.90;;;;;;5078180;28;20226;-48
2021/05/22 08:08:52;;;;;;;2.20;0.80;;;13.10;99.90;;;;;;5078142;28;20190;-46
2021/05/22 08:11:18;;;;;;;7.03;1.40;;;13.10;99.90;;;;;;5080767;28;20186;-46
2021/05/22 08:13:44;;;;;;;3.33;1.80;;;13.10;99.90;;;;;;5069888;28;20198;-47
2021/05/22 08:16:10;;;;;;;2.43;1.20;;;13.20;99.90;;;;;;5072982;28;20225;-47
2021/05/22 08:18:38;;;;;;;2.93;1.53;;;13.10;99.90;;;;;;5060174;28;20596;-45
2021/05/22 08:21:05;;;;;;;3.37;0.90;;;13.10;99.90;;;;;;5073187;28;20224;-46
2021/05/22 08:23:31;;;;;;;4.23;1.33;;;13.20;99.90;;;;;;5076565;28;20214;-45
2021/05/22 08:25:57;;;;;;;2.10;0.90;;;13.30;99.90;;;;;;5081959;28;20202;-46
2021/05/22 08:28:26;;;;;;;5.33;1.77;;;13.40;99.90;;;;;;5058570;28;20210;-46
2021/05/22 08:30:53;;;;;;;5.53;2.00;;;13.30;99.90;;;;;;5081668;28;20198;-47
2021/05/22 08:33:19;;;;;;;3.73;1.73;;;13.20;99.90;;;;;;5079596;28;20190;-46
2021/05/22 08:35:47;;;;;;;4.43;0.80;;;13.10;99.90;;;;;;5083752;28;20222;-45
2021/05/22 08:38:13;;;;;;;1.80;0.80;;;13.00;99.90;;;;;;5075342;28;20194;-46
2021/05/22 08:40:39;;;;;;;3.37;0.90;;;13.00;99.90;;;;;;5083331;28;20246;-47
2021/05/22 08:43:05;;;;;;;2.30;1.23;;;12.90;99.90;;;;;;5080268;28;20206;-49
2021/05/22 08:45:32;;;;;;;1.80;1.20;;;12.80;99.90;;;;;;5067814;28;20287;-49
2021/05/22 08:47:59;;;;;;;2.83;1.37;;;12.70;99.90;;;;;;5082539;28;20331;-47
2021/05/22 08:50:25;;;;;;;2.47;1.63;;;12.70;99.90;;;;;;5080144;28;20185;-46
2021/05/22 08:52:54;;;;;;;4.30;1.20;;;12.70;99.90;;;;;;5082647;28;20198;-46
2021/05/22 08:55:21;;;;;;;2.20;1.30;;;12.70;99.90;;;;;;5075730;28;20231;-45
2021/05/22 08:57:48;;;;;;;3.60;1.23;;;12.70;99.90;;;;;;5083969;28;20190;-46
2021/05/22 09:00:16;;;;;;;2.53;1.13;;;12.70;99.90;;;;;;5060144;28;20198;-46
2021/05/22 09:02:44;;;;;;;1.77;1.27;;;12.70;99.90;;;;;;5083744;28;20190;-47
2021/05/22 09:05:14;;;;;;;3.23;1.57;;;12.60;99.90;;;;;;5079281;28;20561;-46
2021/05/22 09:07:42;;;;;;;3.90;1.30;;;12.50;99.90;;;;;;5083363;28;20198;-45
2021/05/22 09:10:12;;;;;;;4.97;1.03;;;12.60;99.90;;;;;;5074077;28;20238;-44
2021/05/22 09:12:40;;;;;;;3.20;1.30;;;12.50;99.90;;;;;;5083314;28;20186;-46
2021/05/22 09:15:10;;;;;;;1.87;1.43;;;12.50;99.90;;;;;;5070813;28;20217;-45
2021/05/22 09:17:37;;;;;;;3.07;0.97;;;12.50;99.90;;;;;;5081368;28;20225;-47
2021/05/22 09:20:15;;;;;;;5.17;1.90;;;12.30;99.90;;;;;;5080796;28;20610;-46
2021/05/22 09:22:42;;;;;;;5.90;1.97;;;12.20;99.90;;;;;;5064023;28;20205;-46
2021/05/22 09:25:10;;;;;;;3.80;1.70;;;12.10;99.90;;;;;;5076690;28;20236;-48
2021/05/22 09:27:38;;;;;;;8.00;1.73;;;12.00;99.90;;;;;;5066849;28;20352;-47
2021/05/22 09:30:08;;;;;;;3.53;1.27;;;12.00;99.90;;;;;;5080734;28;20194;-46
2021/05/22 09:32:34;;;;;;;3.17;1.80;;;12.00;99.90;;;;;;5069329;28;20296;-47
2021/05/22 09:35:01;;;;;;;1.77;1.17;;;12.00;99.90;;;;;;5074793;28;20244;-47
2021/05/22 09:37:27;;;;;;;5.47;1.40;;;12.00;99.90;;;;;;5079274;28;20415;-47
2021/05/22 09:39:53;;;;;;;3.80;1.03;;;12.00;99.90;;;;;;5082844;28;20213;-49
2021/05/22 09:42:29;;;;;;;3.83;1.17;;;12.00;99.90;;;;;;5075906;28;20209;-48
2021/05/22 09:44:55;;;;;;;4.80;1.40;;;11.90;99.90;;;;;;5078053;28;20230;-47
2021/05/22 09:47:22;;;;;;;4.17;1.10;;;11.90;99.90;;;;;;5064561;28;20206;-46
2021/05/22 09:49:50;;;;;;;2.33;1.07;;;11.80;99.90;;;;;;5082330;28;20206;-46
2021/05/22 09:52:17;;;;;;;5.37;1.37;;;11.80;99.90;;;;;;5079892;28;20275;-47
2021/05/22 09:54:46;;;;;;;4.97;1.17;;;11.70;99.90;;;;;;5080676;28;20239;-49
2021/05/22 09:57:16;;;;;;;3.67;1.23;;;11.70;99.90;;;;;;5077083;28;20202;-49
2021/05/22 09:59:44;;;;;;;3.60;0.90;;;11.70;99.90;;;;;;5076110;28;20210;-48
2021/05/22 10:02:10;;;;;;;2.63;1.20;;;11.70;99.90;;;;;;5063408;28;20711;-46
2021/05/22 10:04:37;;;;;;;2.63;1.13;;;11.60;99.90;;;;;;5077035;28;20325;-47
2021/05/22 10:07:03;;;;;;;1.90;1.40;;;11.60;99.90;;;;;;5072919;28;20217;-48
2021/05/22 10:09:29;;;;;;;1.10;1.07;;;11.50;99.90;;;;;;5077336;28;20193;-49
2021/05/22 10:12:07;;;;;;;5.53;1.83;;;11.50;99.90;;;;;;5075737;28;20293;-48
2021/05/22 10:14:35;;;;;;;2.43;1.37;;;11.40;99.90;;;;;;5078406;28;20286;-47
2021/05/22 10:17:03;;;;;;;6.27;1.63;;;11.40;99.90;;;;;;5077856;28;20233;-48
2021/05/22 10:19:30;;;;;;;1.33;1.00;;;11.30;99.90;;;;;;5068266;28;20202;-50
2021/05/22 10:21:58;;;;;;;4.37;1.30;;;11.40;99.90;;;;;;5085941;28;20280;-48
2021/05/22 10:24:25;;;;;;;2.20;1.07;;;11.40;99.90;;;;;;5081527;28;20309;-47
2021/05/22 10:26:51;;;;;;;2.17;1.50;;;11.30;99.90;;;;;;5085832;28;20217;-49
2021/05/22 10:29:19;;;;;;;6.57;1.73;;;11.30;99.90;;;;;;5078419;28;20624;-44
2021/05/22 10:31:45;;;;;;;1.77;1.33;;;11.30;99.90;;;;;;5078938;28;20202;-48
2021/05/22 10:34:14;;;;;;;5.90;2.00;;;11.30;99.90;;;;;;5065277;28;20203;-47
2021/05/22 10:36:48;;;;;;;2.10;1.30;;;11.30;99.90;;;;;;5083102;28;20893;-48
2021/05/22 10:39:39;;;;;;;3.23;1.90;;;11.30;99.90;;;;;;5068818;28;20197;-48
2021/05/22 10:42:07;;;;;;;3.73;2.23;;;11.20;99.90;;;;;;5084208;28;20775;-54
2021/05/22 10:44:37;;;;;;;5.13;2.17;;;11.20;99.90;;;;;;5077951;28;20300;-48
2021/05/22 10:47:10;;;;;;;5.50;1.77;;;11.20;99.90;;;;;;5079550;28;20228;-54
2021/05/22 10:49:49;;;;;;;1.87;1.30;;;11.20;99.90;;;;;;5067246;28;20218;-50
2021/05/22 10:52:17;;;;;;;6.03;2.40;;;11.20;99.90;;;;;;5065637;28;22036;-50
2021/05/22 10:55:01;;;;;;;3.13;1.40;;;11.20;99.90;;;;;;5085158;28;20376;-50
2021/05/22 10:57:28;;;;;;;5.97;1.67;;;11.20;99.90;;;;;;5083289;28;20243;-50
2021/05/22 11:00:17;;;;;;;3.90;2.20;;;11.20;99.90;;;;;;5073366;28;20213;-50
2021/05/22 11:02:45;;;;;;;4.13;2.43;;;11.10;99.90;;;;;;5079823;28;20217;-52
2021/05/22 11:05:39;;;;;;;5.43;2.90;;;11.10;99.90;;;;;;5063253;28;20213;-52
2021/05/22 11:08:30;;;;;;;4.37;1.40;;;11.00;99.90;;;;;;5079804;28;20213;-47
2021/05/22 11:11:00;;;;;;;3.03;1.80;;;11.10;99.90;;;;;;5079555;28;20252;-46
2021/05/22 11:13:40;;;;;;;3.17;1.30;;;11.10;99.90;;;;;;5077753;28;20213;-48
2021/05/22 11:16:07;;;;;;;6.97;2.27;;;11.10;99.90;;;;;;5076589;28;20357;-47
2021/05/22 11:19:02;;;;;;;2.13;1.67;;;11.10;99.90;;;;;;5079610;28;20206;-49
2021/05/22 11:21:29;;;;;;;5.97;1.70;;;11.10;99.90;;;;;;5069349;28;20214;-49
2021/05/22 11:24:09;;;;;;;2.57;1.80;;;11.00;99.90;;;;;;5082068;28;20206;-46
2021/05/22 11:26:59;;;;;;;3.17;2.10;;;11.00;99.90;;;;;;5084619;28;20237;-47
2021/05/22 11:29:51;;;;;;;6.90;2.23;;;11.00;99.90;;;;;;5074856;28;20205;-48
2021/05/22 11:32:45;;;;;;;3.20;2.23;;;11.00;99.90;;;;;;5079490;28;20190;-51
2021/05/22 11:35:46;;;;;;;4.93;2.20;;;10.90;99.90;;;;;;5076404;28;21037;-47
2021/05/22 11:38:34;;;;;;;6.47;2.83;;;10.90;99.90;;;;;;5062303;28;20189;-47
2021/05/22 11:41:06;;;;;;;6.00;2.67;;;11.00;99.90;;;;;;5081439;28;20198;-49
2021/05/22 11:43:32;;;;;;;3.33;1.83;;;10.90;99.90;;;;;;5084256;28;20273;-48
2021/05/22 11:46:01;;;;;;;9.97;3.30;;;11.00;99.90;;;;;;5074421;28;20290;-48
2021/05/22 11:48:29;;;;;;;4.93;1.57;;;11.00;99.90;;;;;;5082988;28;20233;-47
2021/05/22 11:51:05;;;;;;;1.50;1.40;;;11.00;99.90;;;;;;5077221;28;20197;-47
2021/05/22 11:53:33;;;;;;;3.37;1.60;;;11.10;99.90;;;;;;5072325;28;20202;-46
2021/05/22 11:56:01;;;;;;;2.70;2.07;;;11.10;99.90;;;;;;5080809;28;20834;-45
2021/05/22 11:58:28;;;;;;;1.70;1.60;;;11.20;99.90;;;;;;5083553;28;20239;-45
2021/05/22 12:00:55;;;;;;;4.83;2.70;;;11.20;99.90;;;;;;5076487;28;20284;-47
2021/05/22 12:03:23;;;;;;;3.53;1.60;;;11.20;99.90;;;;;;5079297;28;20269;-45
2021/05/22 12:05:50;;;;;;;2.93;2.20;;;11.20;99.90;;;;;;5079787;28;20864;-48
2021/05/22 12:08:17;;;;;;;2.73;1.80;;;11.10;99.90;;;;;;5059202;28;20297;-47
2021/05/22 12:10:44;;;;;;;2.97;1.90;;;11.10;99.90;;;;;;5080885;28;20202;-50
2021/05/22 12:13:10;;;;;;;2.47;2.13;;;11.10;99.90;;;;;;5079594;28;20954;-46
2021/05/22 12:15:38;;;;;;;1.93;1.63;;;11.10;99.90;;;;;;5084107;28;20320;-46
2021/05/22 12:18:06;;;;;;;3.17;1.70;;;11.10;99.90;;;;;;5071496;28;20213;-47
2021/05/22 12:20:45;;;;;;;4.20;2.00;;;11.10;99.90;;;;;;5077383;28;20273;-48
2021/05/22 12:23:26;;;;;;;3.87;1.90;;;11.20;99.90;;;;;;5051459;28;20402;-46
2021/05/22 12:25:55;;;;;;;2.53;1.90;;;11.20;99.90;;;;;;5081509;28;20214;-47
2021/05/22 12:28:21;;;;;;;2.33;2.00;;;11.20;99.90;;;;;;5081652;28;20194;-46
2021/05/22 12:30:48;;;;;;;2.53;1.70;;;11.30;99.90;;;;;;5082672;28;20194;-45
2021/05/22 12:33:16;;;;;;;1.60;1.50;;;11.30;99.90;;;;;;5067835;28;21735;-47
2021/05/22 12:35:42;;;;;;;2.73;1.73;;;11.40;99.90;;;;;;5083935;28;20218;-47
2021/05/22 12:38:08;;;;;;;3.13;1.90;;;11.40;99.90;;;;;;5065806;28;20198;-47
2021/05/22 12:40:45;;;;;;;2.93;1.80;;;11.40;99.90;;;;;;5068048;28;20575;-46
2021/05/22 12:43:12;;;;;;;3.83;2.20;;;11.40;99.90;;;;;;5079204;28;20200;-47
2021/05/22 12:45:42;;;;;;;3.73;2.00;;;11.40;99.90;;;;;;5081541;28;20252;-46
2021/05/22 12:48:21;;;;;;;3.03;1.90;;;11.40;99.90;;;;;;5068901;28;20202;-47
2021/05/22 12:50:48;;;;;;;1.83;1.73;;;11.40;99.90;;;;;;5082421;28;20193;-44
2021/05/22 12:53:14;;;;;;;2.50;2.00;;;11.40;99.90;;;;;;5069899;28;21254;-47
2021/05/22 12:55:40;;;;;;;2.10;1.93;;;11.50;99.90;;;;;;5062993;28;20579;-47